sensor_id;sensor_type;location;lat;lon;timestamp;P1;durP1;ratioP1;P2;durP2;ratioP2
52102;SDS011;38101;53.126;6.878;2022-07-09T00:00:03;9.45;;;4.88;;
52102;SDS011;38101;53.126;6.878;2022-07-09T00:02:29;8.45;;;4.95;;
52102;SDS011;38101;53.126;6.878;2022-07-09T00:04:55;8.88;;;5.13;;
52102;SDS011;38101;53.126;6.878;2022-07-09T00:07:21;7.47;;;4.60;;
52102;SDS011;38101;53.126;6.878;2022-07-09T00:09:46;8.27;;;4.97;;
52102;SDS011;38101;53.126;6.878;2022-07-09T00:12:12;7.40;;;5.22;;
52102;SDS011;38101;53.126;6.878;2022-07-09T00:14:38;8.27;;;5.50;;
52102;SDS011;38101;53.126;6.878;2022-07-09T00:17:04;9.05;;;5.40;;
52102;SDS011;38101;53.126;6.878;2022-07-09T00:19:29;7.50;;;5.28;;
52102;SDS011;38101;53.126;6.878;2022-07-09T00:21:55;10.15;;;6.00;;
52102;SDS011;38101;53.126;6.878;2022-07-09T00:24:21;8.63;;;5.53;;
52102;SDS011;38101;53.126;6.878;2022-07-09T00:26:46;9.65;;;5.53;;
52102;SDS011;38101;53.126;6.878;2022-07-09T00:29:12;9.25;;;6.15;;
52102;SDS011;38101;53.126;6.878;2022-07-09T00:31:37;6.53;;;5.03;;
52102;SDS011;38101;53.126;6.878;2022-07-09T00:34:03;8.30;;;5.80;;
52102;SDS011;38101;53.126;6.878;2022-07-09T00:36:29;11.35;;;6.18;;
52102;SDS011;38101;53.126;6.878;2022-07-09T00:38:54;7.10;;;5.50;;
52102;SDS011;38101;53.126;6.878;2022-07-09T00:41:20;10.77;;;5.43;;
52102;SDS011;38101;53.126;6.878;2022-07-09T00:43:46;7.03;;;5.30;;
52102;SDS011;38101;53.126;6.878;2022-07-09T00:46:13;9.63;;;5.90;;
52102;SDS011;38101;53.126;6.878;2022-07-09T00:48:39;10.02;;;5.93;;
52102;SDS011;38101;53.126;6.878;2022-07-09T00:51:05;10.27;;;5.15;;
52102;SDS011;38101;53.126;6.878;2022-07-09T00:53:31;8.95;;;5.20;;
52102;SDS011;38101;53.126;6.878;2022-07-09T00:55:57;8.18;;;5.80;;
52102;SDS011;38101;53.126;6.878;2022-07-09T00:58:23;7.97;;;5.90;;
52102;SDS011;38101;53.126;6.878;2022-07-09T01:00:49;10.35;;;5.57;;
52102;SDS011;38101;53.126;6.878;2022-07-09T01:03:15;9.27;;;5.82;;
52102;SDS011;38101;53.126;6.878;2022-07-09T01:05:41;9.07;;;5.95;;
52102;SDS011;38101;53.126;6.878;2022-07-09T01:08:07;8.57;;;6.30;;
52102;SDS011;38101;53.126;6.878;2022-07-09T01:10:33;9.15;;;6.15;;
52102;SDS011;38101;53.126;6.878;2022-07-09T01:13:00;8.13;;;5.82;;
52102;SDS011;38101;53.126;6.878;2022-07-09T01:15:28;10.10;;;7.07;;
52102;SDS011;38101;53.126;6.878;2022-07-09T01:17:54;8.80;;;6.63;;
52102;SDS011;38101;53.126;6.878;2022-07-09T01:20:26;11.57;;;7.15;;
52102;SDS011;38101;53.126;6.878;2022-07-09T01:22:56;9.73;;;7.10;;
52102;SDS011;38101;53.126;6.878;2022-07-09T01:25:40;9.70;;;7.30;;
52102;SDS011;38101;53.126;6.878;2022-07-09T01:28:08;11.00;;;7.10;;
52102;SDS011;38101;53.126;6.878;2022-07-09T01:30:35;12.48;;;8.32;;
52102;SDS011;38101;53.126;6.878;2022-07-09T01:33:02;15.23;;;8.32;;
52102;SDS011;38101;53.126;6.878;2022-07-09T01:35:28;11.38;;;8.30;;
52102;SDS011;38101;53.126;6.878;2022-07-09T01:37:54;11.45;;;8.32;;
52102;SDS011;38101;53.126;6.878;2022-07-09T01:40:20;12.95;;;8.00;;
52102;SDS011;38101;53.126;6.878;2022-07-09T01:42:47;13.23;;;8.35;;
52102;SDS011;38101;53.126;6.878;2022-07-09T01:45:13;11.77;;;8.07;;
52102;SDS011;38101;53.126;6.878;2022-07-09T01:47:39;12.05;;;8.65;;
52102;SDS011;38101;53.126;6.878;2022-07-09T01:50:05;12.35;;;8.52;;
52102;SDS011;38101;53.126;6.878;2022-07-09T01:52:32;12.65;;;8.65;;
52102;SDS011;38101;53.126;6.878;2022-07-09T01:54:58;11.50;;;8.07;;
52102;SDS011;38101;53.126;6.878;2022-07-09T01:57:24;11.35;;;8.07;;
52102;SDS011;38101;53.126;6.878;2022-07-09T01:59:50;12.52;;;7.97;;
52102;SDS011;38101;53.126;6.878;2022-07-09T02:02:17;13.43;;;7.95;;
52102;SDS011;38101;53.126;6.878;2022-07-09T02:04:43;11.70;;;8.00;;
52102;SDS011;38101;53.126;6.878;2022-07-09T02:07:10;11.27;;;7.60;;
52102;SDS011;38101;53.126;6.878;2022-07-09T02:09:36;11.43;;;8.05;;
52102;SDS011;38101;53.126;6.878;2022-07-09T02:12:02;13.05;;;7.63;;
52102;SDS011;38101;53.126;6.878;2022-07-09T02:14:29;11.32;;;8.13;;
52102;SDS011;38101;53.126;6.878;2022-07-09T02:16:55;13.55;;;7.35;;
52102;SDS011;38101;53.126;6.878;2022-07-09T02:19:21;9.93;;;7.03;;
52102;SDS011;38101;53.126;6.878;2022-07-09T02:21:46;13.57;;;7.60;;
52102;SDS011;38101;53.126;6.878;2022-07-09T02:24:12;12.48;;;8.02;;
52102;SDS011;38101;53.126;6.878;2022-07-09T02:26:38;13.90;;;8.40;;
52102;SDS011;38101;53.126;6.878;2022-07-09T02:29:03;10.70;;;7.28;;
52102;SDS011;38101;53.126;6.878;2022-07-09T02:31:29;11.45;;;7.68;;
52102;SDS011;38101;53.126;6.878;2022-07-09T02:33:55;14.02;;;7.47;;
52102;SDS011;38101;53.126;6.878;2022-07-09T02:36:21;13.57;;;7.60;;
52102;SDS011;38101;53.126;6.878;2022-07-09T02:38:47;11.30;;;7.78;;
52102;SDS011;38101;53.126;6.878;2022-07-09T02:41:13;10.25;;;7.15;;
52102;SDS011;38101;53.126;6.878;2022-07-09T02:43:38;12.35;;;8.10;;
52102;SDS011;38101;53.126;6.878;2022-07-09T02:46:04;12.43;;;8.40;;
52102;SDS011;38101;53.126;6.878;2022-07-09T02:48:30;16.65;;;8.35;;
52102;SDS011;38101;53.126;6.878;2022-07-09T02:50:56;14.48;;;8.00;;
52102;SDS011;38101;53.126;6.878;2022-07-09T02:53:22;13.60;;;8.25;;
52102;SDS011;38101;53.126;6.878;2022-07-09T02:55:47;11.18;;;7.82;;
52102;SDS011;38101;53.126;6.878;2022-07-09T02:58:13;13.38;;;8.13;;
52102;SDS011;38101;53.126;6.878;2022-07-09T03:00:39;14.52;;;8.10;;
52102;SDS011;38101;53.126;6.878;2022-07-09T03:03:05;15.90;;;8.77;;
52102;SDS011;38101;53.126;6.878;2022-07-09T03:05:32;11.43;;;8.23;;
52102;SDS011;38101;53.126;6.878;2022-07-09T03:07:57;12.98;;;7.82;;
52102;SDS011;38101;53.126;6.878;2022-07-09T03:10:23;12.25;;;7.85;;
52102;SDS011;38101;53.126;6.878;2022-07-09T03:12:49;12.75;;;8.18;;
52102;SDS011;38101;53.126;6.878;2022-07-09T03:15:15;10.98;;;8.02;;
52102;SDS011;38101;53.126;6.878;2022-07-09T03:17:45;14.02;;;8.60;;
52102;SDS011;38101;53.126;6.878;2022-07-09T03:20:12;13.32;;;7.63;;
52102;SDS011;38101;53.126;6.878;2022-07-09T03:22:38;12.85;;;7.93;;
52102;SDS011;38101;53.126;6.878;2022-07-09T03:25:04;10.55;;;7.75;;
52102;SDS011;38101;53.126;6.878;2022-07-09T03:27:31;11.52;;;7.85;;
52102;SDS011;38101;53.126;6.878;2022-07-09T03:29:57;10.23;;;7.50;;
52102;SDS011;38101;53.126;6.878;2022-07-09T03:32:23;11.20;;;7.38;;
52102;SDS011;38101;53.126;6.878;2022-07-09T03:34:49;13.18;;;8.05;;
52102;SDS011;38101;53.126;6.878;2022-07-09T03:37:17;12.38;;;7.18;;
52102;SDS011;38101;53.126;6.878;2022-07-09T03:39:43;10.88;;;7.22;;
52102;SDS011;38101;53.126;6.878;2022-07-09T03:42:10;12.48;;;7.63;;
52102;SDS011;38101;53.126;6.878;2022-07-09T03:44:36;13.02;;;7.57;;
52102;SDS011;38101;53.126;6.878;2022-07-09T03:47:02;12.60;;;7.15;;
52102;SDS011;38101;53.126;6.878;2022-07-09T03:49:27;12.45;;;7.30;;
52102;SDS011;38101;53.126;6.878;2022-07-09T03:51:53;13.27;;;7.38;;
52102;SDS011;38101;53.126;6.878;2022-07-09T03:54:19;11.70;;;7.22;;
52102;SDS011;38101;53.126;6.878;2022-07-09T03:56:44;13.05;;;6.75;;
52102;SDS011;38101;53.126;6.878;2022-07-09T03:59:10;10.13;;;7.03;;
52102;SDS011;38101;53.126;6.878;2022-07-09T04:01:36;9.95;;;7.10;;
52102;SDS011;38101;53.126;6.878;2022-07-09T04:04:02;11.95;;;7.70;;
52102;SDS011;38101;53.126;6.878;2022-07-09T04:06:28;10.85;;;7.00;;
52102;SDS011;38101;53.126;6.878;2022-07-09T04:08:54;10.95;;;7.68;;
52102;SDS011;38101;53.126;6.878;2022-07-09T04:11:20;12.35;;;7.38;;
52102;SDS011;38101;53.126;6.878;2022-07-09T04:13:46;13.15;;;7.70;;
52102;SDS011;38101;53.126;6.878;2022-07-09T04:16:12;10.73;;;7.10;;
52102;SDS011;38101;53.126;6.878;2022-07-09T04:18:37;11.02;;;6.93;;
52102;SDS011;38101;53.126;6.878;2022-07-09T04:21:07;8.68;;;6.75;;
52102;SDS011;38101;53.126;6.878;2022-07-09T04:23:33;13.48;;;7.53;;
52102;SDS011;38101;53.126;6.878;2022-07-09T04:25:59;9.63;;;6.82;;
52102;SDS011;38101;53.126;6.878;2022-07-09T04:28:24;10.88;;;7.35;;
52102;SDS011;38101;53.126;6.878;2022-07-09T04:30:50;12.10;;;6.95;;
52102;SDS011;38101;53.126;6.878;2022-07-09T04:33:16;13.00;;;7.05;;
52102;SDS011;38101;53.126;6.878;2022-07-09T04:35:41;10.93;;;6.22;;
52102;SDS011;38101;53.126;6.878;2022-07-09T04:38:07;11.88;;;7.25;;
52102;SDS011;38101;53.126;6.878;2022-07-09T04:40:33;10.05;;;7.10;;
52102;SDS011;38101;53.126;6.878;2022-07-09T04:42:58;12.98;;;6.78;;
52102;SDS011;38101;53.126;6.878;2022-07-09T04:45:24;11.05;;;6.53;;
52102;SDS011;38101;53.126;6.878;2022-07-09T04:47:49;10.82;;;6.60;;
52102;SDS011;38101;53.126;6.878;2022-07-09T04:50:15;12.18;;;7.22;;
52102;SDS011;38101;53.126;6.878;2022-07-09T04:52:41;12.18;;;7.40;;
52102;SDS011;38101;53.126;6.878;2022-07-09T04:55:06;11.25;;;7.32;;
52102;SDS011;38101;53.126;6.878;2022-07-09T04:57:32;15.20;;;7.63;;
52102;SDS011;38101;53.126;6.878;2022-07-09T05:00:02;11.40;;;7.32;;
52102;SDS011;38101;53.126;6.878;2022-07-09T05:02:28;11.98;;;6.72;;
52102;SDS011;38101;53.126;6.878;2022-07-09T05:04:54;15.20;;;7.50;;
52102;SDS011;38101;53.126;6.878;2022-07-09T05:07:20;12.20;;;6.85;;
52102;SDS011;38101;53.126;6.878;2022-07-09T05:09:45;13.25;;;7.57;;
52102;SDS011;38101;53.126;6.878;2022-07-09T05:12:11;13.57;;;7.07;;
52102;SDS011;38101;53.126;6.878;2022-07-09T05:14:37;11.40;;;7.28;;
52102;SDS011;38101;53.126;6.878;2022-07-09T05:17:03;11.18;;;7.13;;
52102;SDS011;38101;53.126;6.878;2022-07-09T05:19:29;9.15;;;6.45;;
52102;SDS011;38101;53.126;6.878;2022-07-09T05:21:55;12.75;;;7.28;;
52102;SDS011;38101;53.126;6.878;2022-07-09T05:24:21;13.65;;;7.18;;
52102;SDS011;38101;53.126;6.878;2022-07-09T05:26:46;11.18;;;6.60;;
52102;SDS011;38101;53.126;6.878;2022-07-09T05:29:12;10.93;;;6.88;;
52102;SDS011;38101;53.126;6.878;2022-07-09T05:31:38;11.27;;;6.95;;
52102;SDS011;38101;53.126;6.878;2022-07-09T05:34:03;11.93;;;7.03;;
52102;SDS011;38101;53.126;6.878;2022-07-09T05:36:30;12.00;;;7.00;;
52102;SDS011;38101;53.126;6.878;2022-07-09T05:38:57;12.63;;;7.07;;
52102;SDS011;38101;53.126;6.878;2022-07-09T05:41:24;10.95;;;7.07;;
52102;SDS011;38101;53.126;6.878;2022-07-09T05:43:50;10.73;;;6.80;;
52102;SDS011;38101;53.126;6.878;2022-07-09T05:46:16;11.75;;;7.03;;
52102;SDS011;38101;53.126;6.878;2022-07-09T05:48:42;12.18;;;7.07;;
52102;SDS011;38101;53.126;6.878;2022-07-09T05:51:08;11.05;;;7.00;;
52102;SDS011;38101;53.126;6.878;2022-07-09T05:53:34;12.02;;;6.90;;
52102;SDS011;38101;53.126;6.878;2022-07-09T05:55:59;14.10;;;7.18;;
52102;SDS011;38101;53.126;6.878;2022-07-09T05:58:25;11.85;;;6.32;;
52102;SDS011;38101;53.126;6.878;2022-07-09T06:00:51;12.93;;;6.80;;
52102;SDS011;38101;53.126;6.878;2022-07-09T06:03:17;15.18;;;7.05;;
52102;SDS011;38101;53.126;6.878;2022-07-09T06:05:43;11.82;;;6.30;;
52102;SDS011;38101;53.126;6.878;2022-07-09T06:08:09;12.35;;;6.70;;
52102;SDS011;38101;53.126;6.878;2022-07-09T06:10:35;12.80;;;6.65;;
52102;SDS011;38101;53.126;6.878;2022-07-09T06:13:01;10.05;;;6.15;;
52102;SDS011;38101;53.126;6.878;2022-07-09T06:15:26;9.77;;;5.70;;
52102;SDS011;38101;53.126;6.878;2022-07-09T06:17:52;12.02;;;6.40;;
52102;SDS011;38101;53.126;6.878;2022-07-09T06:20:18;8.82;;;6.07;;
52102;SDS011;38101;53.126;6.878;2022-07-09T06:22:44;11.02;;;6.28;;
52102;SDS011;38101;53.126;6.878;2022-07-09T06:25:10;12.05;;;6.07;;
52102;SDS011;38101;53.126;6.878;2022-07-09T06:27:35;11.27;;;5.72;;
52102;SDS011;38101;53.126;6.878;2022-07-09T06:30:02;10.60;;;5.60;;
52102;SDS011;38101;53.126;6.878;2022-07-09T06:32:28;7.65;;;5.20;;
52102;SDS011;38101;53.126;6.878;2022-07-09T06:34:54;8.10;;;5.32;;
52102;SDS011;38101;53.126;6.878;2022-07-09T06:37:20;8.15;;;5.53;;
52102;SDS011;38101;53.126;6.878;2022-07-09T06:39:45;9.95;;;5.47;;
52102;SDS011;38101;53.126;6.878;2022-07-09T06:42:12;10.85;;;5.07;;
52102;SDS011;38101;53.126;6.878;2022-07-09T06:44:39;8.05;;;5.50;;
52102;SDS011;38101;53.126;6.878;2022-07-09T06:47:05;8.27;;;4.82;;
52102;SDS011;38101;53.126;6.878;2022-07-09T06:49:31;7.55;;;4.20;;
52102;SDS011;38101;53.126;6.878;2022-07-09T06:51:57;9.00;;;4.57;;
52102;SDS011;38101;53.126;6.878;2022-07-09T06:54:23;8.35;;;4.82;;
52102;SDS011;38101;53.126;6.878;2022-07-09T06:56:49;7.60;;;4.90;;
52102;SDS011;38101;53.126;6.878;2022-07-09T06:59:15;9.25;;;4.25;;
52102;SDS011;38101;53.126;6.878;2022-07-09T07:01:41;7.25;;;4.45;;
52102;SDS011;38101;53.126;6.878;2022-07-09T07:04:07;7.50;;;4.38;;
52102;SDS011;38101;53.126;6.878;2022-07-09T07:06:32;6.30;;;3.95;;
52102;SDS011;38101;53.126;6.878;2022-07-09T07:08:58;7.68;;;4.22;;
52102;SDS011;38101;53.126;6.878;2022-07-09T07:11:24;8.63;;;4.80;;
52102;SDS011;38101;53.126;6.878;2022-07-09T07:13:50;8.55;;;4.22;;
52102;SDS011;38101;53.126;6.878;2022-07-09T07:16:16;6.88;;;4.15;;
52102;SDS011;38101;53.126;6.878;2022-07-09T07:18:42;7.35;;;3.50;;
52102;SDS011;38101;53.126;6.878;2022-07-09T07:21:08;6.28;;;3.95;;
52102;SDS011;38101;53.126;6.878;2022-07-09T07:23:33;7.00;;;3.50;;
52102;SDS011;38101;53.126;6.878;2022-07-09T07:25:59;7.38;;;3.67;;
52102;SDS011;38101;53.126;6.878;2022-07-09T07:28:26;7.35;;;3.67;;
52102;SDS011;38101;53.126;6.878;2022-07-09T07:30:52;6.97;;;3.95;;
52102;SDS011;38101;53.126;6.878;2022-07-09T07:33:17;6.65;;;3.67;;
52102;SDS011;38101;53.126;6.878;2022-07-09T07:35:43;8.18;;;4.20;;
52102;SDS011;38101;53.126;6.878;2022-07-09T07:38:09;9.13;;;3.40;;
52102;SDS011;38101;53.126;6.878;2022-07-09T07:40:35;10.00;;;4.18;;
52102;SDS011;38101;53.126;6.878;2022-07-09T07:43:04;6.70;;;4.00;;
52102;SDS011;38101;53.126;6.878;2022-07-09T07:45:30;9.32;;;3.80;;
52102;SDS011;38101;53.126;6.878;2022-07-09T07:47:56;6.50;;;3.97;;
52102;SDS011;38101;53.126;6.878;2022-07-09T07:50:23;7.93;;;3.30;;
52102;SDS011;38101;53.126;6.878;2022-07-09T07:52:49;10.05;;;3.45;;
52102;SDS011;38101;53.126;6.878;2022-07-09T07:55:15;7.82;;;3.65;;
52102;SDS011;38101;53.126;6.878;2022-07-09T07:57:41;8.80;;;3.42;;
52102;SDS011;38101;53.126;6.878;2022-07-09T08:00:07;6.97;;;3.10;;
52102;SDS011;38101;53.126;6.878;2022-07-09T08:02:34;6.15;;;3.17;;
52102;SDS011;38101;53.126;6.878;2022-07-09T08:04:59;6.18;;;3.08;;
52102;SDS011;38101;53.126;6.878;2022-07-09T08:07:26;7.05;;;3.63;;
52102;SDS011;38101;53.126;6.878;2022-07-09T08:09:52;6.63;;;3.65;;
52102;SDS011;38101;53.126;6.878;2022-07-09T08:12:18;9.23;;;3.65;;
52102;SDS011;38101;53.126;6.878;2022-07-09T08:14:44;5.72;;;3.08;;
52102;SDS011;38101;53.126;6.878;2022-07-09T08:17:10;4.72;;;2.95;;
52102;SDS011;38101;53.126;6.878;2022-07-09T08:19:36;5.45;;;2.80;;
52102;SDS011;38101;53.126;6.878;2022-07-09T08:22:02;6.57;;;2.75;;
52102;SDS011;38101;53.126;6.878;2022-07-09T08:24:27;7.18;;;2.85;;
52102;SDS011;38101;53.126;6.878;2022-07-09T08:26:53;6.50;;;2.92;;
52102;SDS011;38101;53.126;6.878;2022-07-09T08:29:19;5.22;;;2.65;;
52102;SDS011;38101;53.126;6.878;2022-07-09T08:31:44;5.47;;;2.63;;
52102;SDS011;38101;53.126;6.878;2022-07-09T08:34:10;6.00;;;2.67;;
52102;SDS011;38101;53.126;6.878;2022-07-09T08:36:36;5.20;;;2.78;;
52102;SDS011;38101;53.126;6.878;2022-07-09T08:39:02;6.82;;;2.78;;
52102;SDS011;38101;53.126;6.878;2022-07-09T08:41:28;4.53;;;2.17;;
52102;SDS011;38101;53.126;6.878;2022-07-09T08:43:53;6.93;;;2.85;;
52102;SDS011;38101;53.126;6.878;2022-07-09T08:46:20;4.65;;;2.60;;
52102;SDS011;38101;53.126;6.878;2022-07-09T08:48:46;5.75;;;2.80;;
52102;SDS011;38101;53.126;6.878;2022-07-09T08:51:12;5.55;;;2.65;;
52102;SDS011;38101;53.126;6.878;2022-07-09T08:53:41;6.63;;;2.72;;
52102;SDS011;38101;53.126;6.878;2022-07-09T08:56:09;6.35;;;2.42;;
52102;SDS011;38101;53.126;6.878;2022-07-09T08:58:35;6.72;;;2.55;;
52102;SDS011;38101;53.126;6.878;2022-07-09T09:01:02;6.78;;;2.63;;
52102;SDS011;38101;53.126;6.878;2022-07-09T09:03:29;4.47;;;2.42;;
52102;SDS011;38101;53.126;6.878;2022-07-09T09:08:40;5.65;;;2.60;;
52102;SDS011;38101;53.126;6.878;2022-07-09T09:11:29;5.80;;;2.65;;
52102;SDS011;38101;53.126;6.878;2022-07-09T09:13:56;6.10;;;2.90;;
52102;SDS011;38101;53.126;6.878;2022-07-09T09:16:23;5.53;;;3.17;;
52102;SDS011;38101;53.126;6.878;2022-07-09T09:18:50;7.05;;;2.85;;
52102;SDS011;38101;53.126;6.878;2022-07-09T09:21:21;10.80;;;3.38;;
52102;SDS011;38101;53.126;6.878;2022-07-09T09:23:48;4.57;;;2.70;;
52102;SDS011;38101;53.126;6.878;2022-07-09T09:28:46;7.47;;;3.72;;
52102;SDS011;38101;53.126;6.878;2022-07-09T09:31:23;9.27;;;3.40;;
52102;SDS011;38101;53.126;6.878;2022-07-09T09:33:50;8.20;;;3.35;;
52102;SDS011;38101;53.126;6.878;2022-07-09T09:39:06;7.43;;;3.25;;
52102;SDS011;38101;53.126;6.878;2022-07-09T09:41:32;7.70;;;3.08;;
52102;SDS011;38101;53.126;6.878;2022-07-09T09:43:58;4.55;;;2.70;;
52102;SDS011;38101;53.126;6.878;2022-07-09T09:46:29;5.45;;;2.90;;
52102;SDS011;38101;53.126;6.878;2022-07-09T09:48:58;6.45;;;3.17;;
52102;SDS011;38101;53.126;6.878;2022-07-09T09:51:24;7.68;;;3.03;;
52102;SDS011;38101;53.126;6.878;2022-07-09T09:53:53;6.72;;;2.70;;
52102;SDS011;38101;53.126;6.878;2022-07-09T09:56:20;6.90;;;2.65;;
52102;SDS011;38101;53.126;6.878;2022-07-09T09:58:46;6.40;;;2.47;;
52102;SDS011;38101;53.126;6.878;2022-07-09T10:01:12;4.05;;;2.30;;
52102;SDS011;38101;53.126;6.878;2022-07-09T10:03:38;4.57;;;2.58;;
52102;SDS011;38101;53.126;6.878;2022-07-09T10:06:05;6.05;;;2.75;;
52102;SDS011;38101;53.126;6.878;2022-07-09T10:08:31;6.05;;;2.70;;
52102;SDS011;38101;53.126;6.878;2022-07-09T10:10:57;4.85;;;2.83;;
52102;SDS011;38101;53.126;6.878;2022-07-09T10:13:23;4.88;;;2.33;;
52102;SDS011;38101;53.126;6.878;2022-07-09T10:15:49;6.32;;;3.00;;
52102;SDS011;38101;53.126;6.878;2022-07-09T10:18:18;5.43;;;2.60;;
52102;SDS011;38101;53.126;6.878;2022-07-09T10:20:44;6.95;;;2.95;;
52102;SDS011;38101;53.126;6.878;2022-07-09T10:23:22;5.72;;;2.47;;
52102;SDS011;38101;53.126;6.878;2022-07-09T10:25:49;6.00;;;3.10;;
52102;SDS011;38101;53.126;6.878;2022-07-09T10:28:21;5.53;;;2.45;;
52102;SDS011;38101;53.126;6.878;2022-07-09T10:30:47;5.22;;;2.88;;
52102;SDS011;38101;53.126;6.878;2022-07-09T10:33:20;6.35;;;2.80;;
52102;SDS011;38101;53.126;6.878;2022-07-09T10:38:18;5.63;;;2.95;;
52102;SDS011;38101;53.126;6.878;2022-07-09T10:40:47;4.20;;;2.80;;
52102;SDS011;38101;53.126;6.878;2022-07-09T10:43:36;7.55;;;3.38;;
52102;SDS011;38101;53.126;6.878;2022-07-09T10:46:10;7.20;;;3.10;;
52102;SDS011;38101;53.126;6.878;2022-07-09T10:48:38;5.15;;;2.80;;
52102;SDS011;38101;53.126;6.878;2022-07-09T10:51:04;5.03;;;3.00;;
52102;SDS011;38101;53.126;6.878;2022-07-09T10:53:30;6.78;;;2.75;;
52102;SDS011;38101;53.126;6.878;2022-07-09T10:55:56;5.32;;;2.95;;
52102;SDS011;38101;53.126;6.878;2022-07-09T10:58:24;5.53;;;3.05;;
52102;SDS011;38101;53.126;6.878;2022-07-09T11:00:57;6.68;;;2.60;;
52102;SDS011;38101;53.126;6.878;2022-07-09T11:03:24;8.02;;;2.70;;
52102;SDS011;38101;53.126;6.878;2022-07-09T11:05:51;5.65;;;2.65;;
52102;SDS011;38101;53.126;6.878;2022-07-09T11:08:17;5.18;;;2.75;;
52102;SDS011;38101;53.126;6.878;2022-07-09T11:10:43;7.60;;;3.20;;
52102;SDS011;38101;53.126;6.878;2022-07-09T11:13:09;6.70;;;3.03;;
52102;SDS011;38101;53.126;6.878;2022-07-09T11:15:36;7.35;;;2.70;;
52102;SDS011;38101;53.126;6.878;2022-07-09T11:18:03;5.20;;;2.45;;
52102;SDS011;38101;53.126;6.878;2022-07-09T11:20:39;4.68;;;2.53;;
52102;SDS011;38101;53.126;6.878;2022-07-09T11:23:08;5.95;;;2.80;;
52102;SDS011;38101;53.126;6.878;2022-07-09T11:25:35;6.35;;;2.83;;
52102;SDS011;38101;53.126;6.878;2022-07-09T11:28:01;9.23;;;2.83;;
52102;SDS011;38101;53.126;6.878;2022-07-09T11:30:28;5.82;;;2.88;;
52102;SDS011;38101;53.126;6.878;2022-07-09T11:32:55;5.55;;;2.38;;
52102;SDS011;38101;53.126;6.878;2022-07-09T11:37:50;8.38;;;3.13;;
52102;SDS011;38101;53.126;6.878;2022-07-09T11:40:17;6.88;;;2.60;;
52102;SDS011;38101;53.126;6.878;2022-07-09T11:42:44;6.63;;;2.88;;
52102;SDS011;38101;53.126;6.878;2022-07-09T11:45:09;7.75;;;2.85;;
52102;SDS011;38101;53.126;6.878;2022-07-09T11:47:37;6.68;;;2.35;;
52102;SDS011;38101;53.126;6.878;2022-07-09T11:50:14;7.20;;;2.45;;
52102;SDS011;38101;53.126;6.878;2022-07-09T11:52:52;6.90;;;2.65;;
52102;SDS011;38101;53.126;6.878;2022-07-09T11:55:19;7.78;;;2.15;;
52102;SDS011;38101;53.126;6.878;2022-07-09T11:57:59;7.53;;;2.05;;
52102;SDS011;38101;53.126;6.878;2022-07-09T12:00:32;5.97;;;1.80;;
52102;SDS011;38101;53.126;6.878;2022-07-09T12:02:59;5.95;;;2.05;;
52102;SDS011;38101;53.126;6.878;2022-07-09T12:07:56;3.20;;;1.83;;
52102;SDS011;38101;53.126;6.878;2022-07-09T12:12:57;2.95;;;1.67;;
52102;SDS011;38101;53.126;6.878;2022-07-09T12:15:24;5.03;;;2.00;;
52102;SDS011;38101;53.126;6.878;2022-07-09T12:17:51;4.82;;;1.85;;
52102;SDS011;38101;53.126;6.878;2022-07-09T12:20:25;4.05;;;2.05;;
52102;SDS011;38101;53.126;6.878;2022-07-09T12:22:55;4.13;;;1.80;;
52102;SDS011;38101;53.126;6.878;2022-07-09T12:25:21;4.95;;;1.88;;
52102;SDS011;38101;53.126;6.878;2022-07-09T12:27:47;3.22;;;1.67;;
52102;SDS011;38101;53.126;6.878;2022-07-09T12:30:14;6.57;;;2.10;;
52102;SDS011;38101;53.126;6.878;2022-07-09T12:32:40;5.20;;;1.85;;
52102;SDS011;38101;53.126;6.878;2022-07-09T12:35:07;5.30;;;1.80;;
52102;SDS011;38101;53.126;6.878;2022-07-09T12:37:33;4.38;;;1.67;;
52102;SDS011;38101;53.126;6.878;2022-07-09T12:40:02;7.40;;;2.17;;
52102;SDS011;38101;53.126;6.878;2022-07-09T12:42:29;3.08;;;1.80;;
52102;SDS011;38101;53.126;6.878;2022-07-09T12:44:55;4.15;;;1.77;;
52102;SDS011;38101;53.126;6.878;2022-07-09T12:47:20;5.03;;;1.90;;
52102;SDS011;38101;53.126;6.878;2022-07-09T12:49:46;5.05;;;1.90;;
52102;SDS011;38101;53.126;6.878;2022-07-09T12:52:12;5.20;;;1.80;;
52102;SDS011;38101;53.126;6.878;2022-07-09T12:54:37;5.00;;;1.88;;
52102;SDS011;38101;53.126;6.878;2022-07-09T12:57:03;5.90;;;2.00;;
52102;SDS011;38101;53.126;6.878;2022-07-09T12:59:29;5.47;;;1.77;;
52102;SDS011;38101;53.126;6.878;2022-07-09T13:01:55;4.68;;;1.80;;
52102;SDS011;38101;53.126;6.878;2022-07-09T13:04:20;4.97;;;2.03;;
52102;SDS011;38101;53.126;6.878;2022-07-09T13:06:46;5.18;;;2.30;;
52102;SDS011;38101;53.126;6.878;2022-07-09T13:09:12;7.18;;;1.90;;
52102;SDS011;38101;53.126;6.878;2022-07-09T13:11:38;6.55;;;2.00;;
52102;SDS011;38101;53.126;6.878;2022-07-09T13:14:04;3.20;;;1.60;;
52102;SDS011;38101;53.126;6.878;2022-07-09T13:16:30;7.47;;;2.05;;
52102;SDS011;38101;53.126;6.878;2022-07-09T13:18:56;3.97;;;1.80;;
52102;SDS011;38101;53.126;6.878;2022-07-09T13:21:22;5.35;;;2.00;;
52102;SDS011;38101;53.126;6.878;2022-07-09T13:23:48;6.03;;;1.75;;
52102;SDS011;38101;53.126;6.878;2022-07-09T13:26:15;8.10;;;2.00;;
52102;SDS011;38101;53.126;6.878;2022-07-09T13:28:41;3.08;;;1.63;;
52102;SDS011;38101;53.126;6.878;2022-07-09T13:31:07;4.05;;;1.70;;
52102;SDS011;38101;53.126;6.878;2022-07-09T13:33:33;4.38;;;1.60;;
52102;SDS011;38101;53.126;6.878;2022-07-09T13:36:00;3.25;;;1.63;;
52102;SDS011;38101;53.126;6.878;2022-07-09T13:38:26;5.15;;;1.77;;
52102;SDS011;38101;53.126;6.878;2022-07-09T13:40:52;3.58;;;1.70;;
52102;SDS011;38101;53.126;6.878;2022-07-09T13:43:18;4.55;;;1.80;;
52102;SDS011;38101;53.126;6.878;2022-07-09T13:45:44;3.80;;;1.45;;
52102;SDS011;38101;53.126;6.878;2022-07-09T13:48:09;5.88;;;1.63;;
52102;SDS011;38101;53.126;6.878;2022-07-09T13:50:35;5.40;;;2.00;;
52102;SDS011;38101;53.126;6.878;2022-07-09T13:53:04;4.70;;;1.60;;
52102;SDS011;38101;53.126;6.878;2022-07-09T13:55:30;4.47;;;1.92;;
52102;SDS011;38101;53.126;6.878;2022-07-09T13:57:56;4.50;;;1.60;;
52102;SDS011;38101;53.126;6.878;2022-07-09T14:00:22;3.75;;;1.60;;
52102;SDS011;38101;53.126;6.878;2022-07-09T14:02:48;5.75;;;1.88;;
52102;SDS011;38101;53.126;6.878;2022-07-09T14:05:14;4.00;;;1.30;;
52102;SDS011;38101;53.126;6.878;2022-07-09T14:07:40;4.63;;;1.60;;
52102;SDS011;38101;53.126;6.878;2022-07-09T14:10:06;3.92;;;1.60;;
52102;SDS011;38101;53.126;6.878;2022-07-09T14:12:32;4.50;;;1.52;;
52102;SDS011;38101;53.126;6.878;2022-07-09T14:14:57;2.90;;;1.60;;
52102;SDS011;38101;53.126;6.878;2022-07-09T14:17:24;3.22;;;1.50;;
52102;SDS011;38101;53.126;6.878;2022-07-09T14:19:51;5.88;;;1.80;;
52102;SDS011;38101;53.126;6.878;2022-07-09T14:22:16;4.55;;;1.77;;
52102;SDS011;38101;53.126;6.878;2022-07-09T14:24:43;3.65;;;1.63;;
52102;SDS011;38101;53.126;6.878;2022-07-09T14:27:08;7.07;;;2.28;;
52102;SDS011;38101;53.126;6.878;2022-07-09T14:29:34;4.75;;;1.88;;
52102;SDS011;38101;53.126;6.878;2022-07-09T14:32:00;4.25;;;1.77;;
52102;SDS011;38101;53.126;6.878;2022-07-09T14:34:26;4.25;;;1.80;;
52102;SDS011;38101;53.126;6.878;2022-07-09T14:36:51;4.85;;;1.90;;
52102;SDS011;38101;53.126;6.878;2022-07-09T14:39:20;3.95;;;1.95;;
52102;SDS011;38101;53.126;6.878;2022-07-09T14:41:46;4.32;;;1.80;;
52102;SDS011;38101;53.126;6.878;2022-07-09T14:44:13;4.13;;;1.85;;
52102;SDS011;38101;53.126;6.878;2022-07-09T14:46:39;3.97;;;1.80;;
52102;SDS011;38101;53.126;6.878;2022-07-09T14:49:05;4.78;;;2.20;;
52102;SDS011;38101;53.126;6.878;2022-07-09T14:51:31;5.63;;;1.80;;
52102;SDS011;38101;53.126;6.878;2022-07-09T14:53:58;5.15;;;2.03;;
52102;SDS011;38101;53.126;6.878;2022-07-09T14:56:24;3.63;;;1.85;;